Time;durP1;ratioP1;P1;durP2;ratioP2;P2;SDS_P1;SDS_P2;PMS_P1;PMS_P2;Temp;Humidity;BMP_temperature;BMP_pressure;BME280_temperature;BME280_humidity;BME280_pressure;Samples;Min_cycle;Max_cycle;Signal;HPM_P1;HPM_P2
2023/03/04 15:15:42;;;;;;;4.10;1.77;;;7.70;99.90;;;;;;5129387;27;20318;-68
2023/03/04 15:18:16;;;;;;;7.43;1.33;;;7.70;99.90;;;;;;5111282;28;20072;-68
2023/03/04 15:20:52;;;;;;;3.13;1.20;;;7.80;99.90;;;;;;5111479;28;20016;-67
2023/03/04 15:23:18;;;;;;;4.63;1.23;;;7.80;99.90;;;;;;5091650;28;20385;-67
2023/03/04 15:25:44;;;;;;;5.90;1.45;;;7.90;99.90;;;;;;5108780;28;20055;-67
2023/03/04 15:28:34;;;;;;;4.30;1.05;;;7.90;99.90;;;;;;5109721;28;20048;-67
2023/03/04 15:31:00;;;;;;;2.55;1.10;;;7.90;99.90;;;;;;5122443;27;20366;-65
2023/03/04 15:33:25;;;;;;;7.40;1.90;;;7.90;99.90;;;;;;5137877;27;20038;-67
2023/03/04 15:35:59;;;;;;;6.05;1.33;;;7.90;99.90;;;;;;5119456;27;20042;-67
2023/03/04 15:38:26;;;;;;;7.90;2.25;;;7.90;99.90;;;;;;5124516;28;20019;-67
2023/03/04 15:40:53;;;;;;;5.53;1.70;;;7.90;99.90;;;;;;5109017;28;20034;-66
2023/03/04 15:43:21;;;;;;;3.38;1.30;;;7.90;99.90;;;;;;5116163;28;20356;-67
2023/03/04 15:45:49;;;;;;;4.82;1.40;;;7.90;99.90;;;;;;5108353;28;20052;-67
2023/03/04 15:48:17;;;;;;;6.15;2.90;;;8.00;99.90;;;;;;5108913;28;20017;-67
2023/03/04 15:50:57;;;;;;;3.92;1.30;;;8.00;99.90;;;;;;5121821;27;20541;-68
2023/03/04 15:53:38;;;;;;;3.00;1.23;;;7.90;99.90;;;;;;5109283;28;20028;-67
2023/03/04 15:56:23;;;;;;;6.10;1.50;;;7.90;99.90;;;;;;5129273;28;20129;-68
2023/03/04 15:59:08;;;;;;;7.22;1.95;;;7.90;99.90;;;;;;5124487;28;20043;-67
2023/03/04 16:01:34;;;;;;;5.05;1.20;;;7.90;99.90;;;;;;5123514;27;20039;-68
2023/03/04 16:04:00;;;;;;;5.47;1.45;;;7.90;99.90;;;;;;5145725;27;20172;-67
2023/03/04 16:06:29;;;;;;;4.68;1.27;;;7.90;99.90;;;;;;5124259;28;20032;-67
2023/03/04 16:08:55;;;;;;;5.82;1.42;;;7.90;99.90;;;;;;5142869;27;20021;-66
2023/03/04 16:11:24;;;;;;;7.82;2.13;;;7.90;99.90;;;;;;5142465;27;20031;-67
2023/03/04 16:13:50;;;;;;;5.43;1.67;;;7.80;99.90;;;;;;5143968;27;20437;-67
2023/03/04 16:16:15;;;;;;;5.85;1.88;;;7.80;99.90;;;;;;5090643;28;20553;-67
2023/03/04 16:18:42;;;;;;;7.80;2.80;;;7.80;99.90;;;;;;5108139;28;20028;-67
2023/03/04 16:21:12;;;;;;;3.85;1.52;;;7.80;99.90;;;;;;5108133;28;20031;-68
2023/03/04 16:23:42;;;;;;;6.53;1.60;;;7.70;99.90;;;;;;5089753;28;20545;-67
2023/03/04 16:26:19;;;;;;;6.22;2.13;;;7.70;99.90;;;;;;5098279;28;20071;-67
2023/03/04 16:28:46;;;;;;;5.43;1.83;;;7.70;99.90;;;;;;5094095;28;20116;-67
2023/03/04 16:31:14;;;;;;;8.95;1.77;;;7.60;99.90;;;;;;5088921;28;20524;-68
2023/03/04 16:33:40;;;;;;;4.53;1.80;;;7.60;99.90;;;;;;5078326;28;20043;-70
2023/03/04 16:36:26;;;;;;;9.02;1.80;;;7.60;99.90;;;;;;5093889;28;20035;-70
2023/03/04 16:38:55;;;;;;;9.25;2.00;;;7.60;99.90;;;;;;5093202;28;20020;-70
2023/03/04 16:41:25;;;;;;;8.95;1.92;;;7.60;99.90;;;;;;5094127;28;20111;-70
2023/03/04 16:43:51;;;;;;;7.05;1.75;;;7.60;99.90;;;;;;5093822;28;20563;-71
2023/03/04 16:46:16;;;;;;;4.63;2.38;;;7.50;99.90;;;;;;5092728;28;20131;-70
2023/03/04 16:48:42;;;;;;;9.57;1.90;;;7.50;99.90;;;;;;5075731;28;20063;-70
2023/03/04 16:51:17;;;;;;;8.90;2.00;;;7.50;99.90;;;;;;5094484;28;20078;-70
2023/03/04 16:53:47;;;;;;;8.18;2.13;;;7.50;99.90;;;;;;5098822;28;20020;-69
2023/03/04 16:56:18;;;;;;;13.07;2.17;;;7.50;99.90;;;;;;5114028;28;20466;-70
2023/03/04 16:58:45;;;;;;;7.43;1.85;;;7.40;99.90;;;;;;5113422;28;20031;-72
2023/03/04 17:01:18;;;;;;;6.22;1.75;;;7.40;99.90;;;;;;5107693;28;20024;-69
2023/03/04 17:03:44;;;;;;;3.55;1.42;;;7.40;99.90;;;;;;5093010;28;20082;-70
2023/03/04 17:06:11;;;;;;;7.20;1.60;;;7.40;99.90;;;;;;5094028;28;20520;-69
2023/03/04 17:08:37;;;;;;;8.52;1.65;;;7.40;99.90;;;;;;5093565;28;20103;-70
2023/03/04 17:11:03;;;;;;;7.07;1.83;;;7.40;99.90;;;;;;5093155;28;20118;-68
2023/03/04 17:13:28;;;;;;;8.25;2.55;;;7.30;99.90;;;;;;5092948;28;20120;-69
2023/03/04 17:15:54;;;;;;;8.20;3.55;;;7.30;99.90;;;;;;5099025;27;20107;-68
2023/03/04 17:18:19;;;;;;;10.15;2.03;;;7.30;99.90;;;;;;5133393;27;20117;-69
2023/03/04 17:20:45;;;;;;;6.60;1.77;;;7.30;99.90;;;;;;5118442;27;20027;-69
2023/03/04 17:23:10;;;;;;;5.90;1.70;;;7.20;99.90;;;;;;5114161;28;20035;-69
2023/03/04 17:25:36;;;;;;;8.93;1.90;;;7.20;99.90;;;;;;5078838;28;20031;-68
2023/03/04 17:28:02;;;;;;;6.43;1.70;;;7.20;99.90;;;;;;5075344;28;20023;-69
2023/03/04 17:30:28;;;;;;;6.32;2.33;;;7.10;99.90;;;;;;5095378;28;20453;-69
2023/03/04 17:32:53;;;;;;;8.00;1.92;;;7.10;99.90;;;;;;5074682;28;20073;-69
2023/03/04 17:35:19;;;;;;;6.82;1.80;;;7.00;99.90;;;;;;5095604;28;20012;-68
2023/03/04 17:37:45;;;;;;;6.68;1.92;;;6.80;99.90;;;;;;5084756;28;20031;-68
2023/03/04 17:40:13;;;;;;;10.45;1.90;;;6.70;99.90;;;;;;5112984;28;20364;-69
2023/03/04 17:42:40;;;;;;;6.57;1.95;;;6.60;99.90;;;;;;5113196;28;20070;-68
2023/03/04 17:45:07;;;;;;;6.38;2.40;;;6.50;99.90;;;;;;5112546;28;20080;-68
2023/03/04 17:47:32;;;;;;;4.65;1.58;;;6.50;99.90;;;;;;5111726;28;20015;-70
2023/03/04 17:49:58;;;;;;;8.20;1.58;;;6.50;99.90;;;;;;5111506;28;20541;-67
2023/03/04 17:52:24;;;;;;;6.38;1.75;;;6.50;99.90;;;;;;5091143;27;20114;-68
2023/03/04 17:54:49;;;;;;;8.18;2.40;;;6.50;99.90;;;;;;5134121;27;20034;-68
2023/03/04 17:57:15;;;;;;;8.23;2.03;;;6.50;99.90;;;;;;5114808;27;20539;-69
2023/03/04 17:59:41;;;;;;;6.43;1.60;;;6.50;99.90;;;;;;5132777;27;20031;-68
2023/03/04 18:02:06;;;;;;;5.53;1.95;;;6.50;99.90;;;;;;5133661;27;20376;-68
2023/03/04 18:04:34;;;;;;;6.10;1.60;;;6.50;99.90;;;;;;5133122;27;20035;-68
2023/03/04 18:06:59;;;;;;;3.35;1.52;;;6.50;99.90;;;;;;5114558;27;20011;-68
2023/03/04 18:09:25;;;;;;;6.40;1.88;;;6.50;99.90;;;;;;5118592;27;20030;-68
2023/03/04 18:11:51;;;;;;;10.90;3.13;;;6.50;99.90;;;;;;5113124;28;20023;-68
2023/03/04 18:14:16;;;;;;;7.18;2.30;;;6.50;99.90;;;;;;5093893;28;20048;-68
2023/03/04 18:16:42;;;;;;;7.00;2.00;;;6.40;99.90;;;;;;5112987;28;20023;-68
2023/03/04 18:19:08;;;;;;;2.92;1.45;;;6.30;99.90;;;;;;5094759;28;20023;-68
2023/03/04 18:21:34;;;;;;;4.55;1.67;;;6.30;99.90;;;;;;5110160;28;20027;-68
2023/03/04 18:24:00;;;;;;;4.30;1.42;;;6.10;99.90;;;;;;5112914;28;20031;-68
2023/03/04 18:26:26;;;;;;;5.95;1.60;;;6.10;99.90;;;;;;5110842;28;20035;-68
2023/03/04 18:28:53;;;;;;;4.57;1.80;;;6.10;99.90;;;;;;5093905;28;20029;-68
2023/03/04 18:31:20;;;;;;;6.18;1.83;;;6.10;99.90;;;;;;5094254;28;20020;-67
2023/03/04 18:33:46;;;;;;;7.68;1.73;;;6.10;99.90;;;;;;5094037;28;20020;-68
2023/03/04 18:36:13;;;;;;;6.32;1.55;;;6.00;99.90;;;;;;5093905;28;20069;-68
2023/03/04 18:38:38;;;;;;;3.38;1.42;;;6.00;99.90;;;;;;5093713;28;20023;-68
2023/03/04 18:41:07;;;;;;;7.28;1.80;;;6.00;99.90;;;;;;5104172;28;20080;-67
2023/03/04 18:43:33;;;;;;;6.97;1.75;;;6.00;99.90;;;;;;5091112;28;20031;-68
2023/03/04 18:46:05;;;;;;;7.28;2.10;;;6.00;99.90;;;;;;5092098;28;20099;-68
2023/03/04 18:48:32;;;;;;;;;;;6.00;99.90;;;;;;5108482;28;20026;-68
2023/03/04 18:50:58;;;;;;;8.32;2.00;;;6.00;99.90;;;;;;5078636;28;20303;-69
2023/03/04 18:53:28;;;;;;;7.10;2.08;;;6.00;99.90;;;;;;5091984;28;20012;-69
2023/03/04 18:56:00;;;;;;;5.72;2.20;;;6.00;99.90;;;;;;5102810;27;20083;-68
2023/03/04 18:58:27;;;;;;;7.15;2.05;;;6.00;99.90;;;;;;5132934;27;20029;-68
2023/03/04 19:00:53;;;;;;;5.75;1.92;;;5.90;99.90;;;;;;5133176;27;20079;-68
2023/03/04 19:03:19;;;;;;;4.68;1.75;;;5.90;99.90;;;;;;5131908;27;20110;-68
2023/03/04 19:05:45;;;;;;;6.22;1.83;;;5.90;99.90;;;;;;5132817;27;20168;-70
2023/03/04 19:08:11;;;;;;;10.23;2.25;;;5.90;99.90;;;;;;5115416;27;20016;-68
2023/03/04 19:10:37;;;;;;;6.47;2.00;;;5.90;99.90;;;;;;5090693;28;20033;-72
2023/03/04 19:13:02;;;;;;;5.85;1.70;;;5.90;99.90;;;;;;5091279;28;20380;-69
2023/03/04 19:15:28;;;;;;;9.40;1.83;;;5.80;99.90;;;;;;5091374;28;20114;-69
2023/03/04 19:17:53;;;;;;;7.57;1.90;;;5.80;99.90;;;;;;5091105;28;20089;-68
2023/03/04 19:20:19;;;;;;;4.72;1.90;;;5.80;99.90;;;;;;5091790;28;20031;-69
2023/03/04 19:22:45;;;;;;;6.57;1.65;;;5.80;99.90;;;;;;5097770;28;20076;-69
2023/03/04 19:25:11;;;;;;;5.32;1.67;;;5.80;99.90;;;;;;5093300;28;20036;-69
2023/03/04 19:27:37;;;;;;;8.75;3.08;;;5.80;99.90;;;;;;5111555;28;20739;-69
2023/03/04 19:30:04;;;;;;;4.90;1.83;;;5.80;99.90;;;;;;5108057;28;20024;-68
2023/03/04 19:32:29;;;;;;;7.55;1.90;;;5.80;99.90;;;;;;5088631;28;20020;-68
2023/03/04 19:34:55;;;;;;;8.23;2.47;;;5.80;99.90;;;;;;5093765;28;20020;-68
2023/03/04 19:37:21;;;;;;;6.85;2.63;;;5.80;99.90;;;;;;5110059;28;20011;-68
2023/03/04 19:39:48;;;;;;;9.45;1.98;;;5.70;99.90;;;;;;5111278;28;20031;-69
2023/03/04 19:42:14;;;;;;;5.25;1.80;;;5.80;99.90;;;;;;5111728;28;20441;-67
2023/03/04 19:44:40;;;;;;;8.75;1.98;;;5.80;99.90;;;;;;5110763;28;20534;-67
2023/03/04 19:47:06;;;;;;;10.90;2.40;;;5.80;99.90;;;;;;5093612;28;20019;-69
2023/03/04 19:49:32;;;;;;;4.85;1.77;;;5.80;99.90;;;;;;5111592;28;20417;-69
2023/03/04 19:51:58;;;;;;;6.38;1.80;;;5.80;99.90;;;;;;5075462;28;20020;-68
2023/03/04 19:54:24;;;;;;;4.90;2.30;;;5.70;99.90;;;;;;5072714;28;20427;-68
2023/03/04 19:56:49;;;;;;;8.85;2.05;;;5.70;99.90;;;;;;5078416;28;20051;-68
2023/03/04 19:59:15;;;;;;;7.15;2.15;;;5.70;99.90;;;;;;5111037;28;20118;-68
2023/03/04 20:01:41;;;;;;;6.57;2.67;;;5.70;99.90;;;;;;5095943;28;20459;-69
2023/03/04 20:04:11;;;;;;;4.13;2.13;;;5.70;99.90;;;;;;5115260;28;20610;-69
2023/03/04 20:06:45;;;;;;;9.68;2.13;;;5.70;99.90;;;;;;5114468;28;20026;-68
2023/03/04 20:09:12;;;;;;;9.23;2.28;;;5.70;99.90;;;;;;5115767;28;20012;-68
2023/03/04 20:11:38;;;;;;;4.25;1.60;;;5.70;99.90;;;;;;5092650;28;20407;-69
2023/03/04 20:14:04;;;;;;;7.47;1.88;;;5.70;99.90;;;;;;5110840;28;20031;-68
2023/03/04 20:16:32;;;;;;;6.07;1.80;;;5.70;99.90;;;;;;5106405;27;20028;-68
2023/03/04 20:18:58;;;;;;;6.00;1.73;;;5.60;99.90;;;;;;5110661;28;20001;-71
2023/03/04 20:21:25;;;;;;;9.18;1.90;;;5.60;99.90;;;;;;5093816;28;20039;-68
2023/03/04 20:23:51;;;;;;;6.03;2.00;;;5.60;99.90;;;;;;5101463;28;20028;-70
2023/03/04 20:26:17;;;;;;;6.72;1.55;;;5.50;99.90;;;;;;5096576;28;20110;-69
2023/03/04 20:28:43;;;;;;;5.85;2.00;;;5.50;99.90;;;;;;5095402;28;20015;-69
2023/03/04 20:31:23;;;;;;;10.85;2.47;;;5.50;99.90;;;;;;5096662;28;20035;-69
2023/03/04 20:33:49;;;;;;;11.20;1.80;;;5.40;99.90;;;;;;5095696;28;20712;-69
2023/03/04 20:36:17;;;;;;;3.88;1.35;;;5.40;99.90;;;;;;5103894;27;20142;-69
2023/03/04 20:38:43;;;;;;;5.88;1.73;;;5.30;99.90;;;;;;5134843;27;20031;-69
2023/03/04 20:41:08;;;;;;;9.40;1.65;;;5.30;99.90;;;;;;5116384;27;20023;-72
2023/03/04 20:43:35;;;;;;;8.20;1.80;;;5.40;99.90;;;;;;5134734;27;20039;-71
2023/03/04 20:46:40;;;;;;;7.20;2.65;;;5.40;99.90;;;;;;5116724;27;20015;-71
2023/03/04 20:49:22;;;;;;;7.53;1.60;;;5.30;99.90;;;;;;5134773;27;20011;-72
2023/03/04 20:51:50;;;;;;;11.38;2.05;;;5.30;99.90;;;;;;5132541;27;20027;-71
2023/03/04 20:54:16;;;;;;;6.18;1.50;;;5.30;99.90;;;;;;5116727;27;20122;-71
2023/03/04 20:56:41;;;;;;;6.10;1.77;;;5.30;99.90;;;;;;5109333;27;20058;-69
2023/03/04 20:59:08;;;;;;;4.35;1.60;;;5.20;99.90;;;;;;5116972;27;20022;-71
2023/03/04 21:01:36;;;;;;;4.43;1.70;;;5.30;99.90;;;;;;5134412;27;20023;-70
2023/03/04 21:04:02;;;;;;;7.90;2.20;;;5.20;99.90;;;;;;5134278;27;20027;-69
2023/03/04 21:06:28;;;;;;;8.02;2.08;;;5.20;99.90;;;;;;5115777;27;20027;-69
2023/03/04 21:08:55;;;;;;;9.18;2.08;;;5.20;99.90;;;;;;5135095;27;20075;-70
2023/03/04 21:11:22;;;;;;;3.63;1.40;;;5.20;99.90;;;;;;5102616;28;20027;-69
2023/03/04 21:13:56;;;;;;;6.85;1.77;;;5.20;99.90;;;;;;5092534;28;20475;-69
2023/03/04 21:16:24;;;;;;;3.38;1.42;;;5.20;99.90;;;;;;5093495;28;20024;-70
2023/03/04 21:18:51;;;;;;;6.78;1.83;;;5.20;99.90;;;;;;5112664;28;20023;-70
2023/03/04 21:21:23;;;;;;;4.30;1.70;;;5.20;99.90;;;;;;5112692;28;20026;-69
2023/03/04 21:23:50;;;;;;;5.95;1.60;;;5.20;99.90;;;;;;5111637;28;20039;-69
2023/03/04 21:26:17;;;;;;;6.30;2.08;;;5.10;99.90;;;;;;5112446;28;20400;-71
2023/03/04 21:28:44;;;;;;;3.80;1.50;;;5.10;99.90;;;;;;5112314;28;20019;-71
2023/03/04 21:31:18;;;;;;;6.43;1.65;;;5.00;99.90;;;;;;5106790;28;20035;-70
2023/03/04 21:33:46;;;;;;;4.13;1.40;;;5.00;99.90;;;;;;5093324;28;20034;-70
2023/03/04 21:36:13;;;;;;;7.35;1.60;;;4.90;99.90;;;;;;5094499;28;20024;-69
2023/03/04 21:38:40;;;;;;;6.43;1.70;;;4.90;99.90;;;;;;5110293;28;20142;-69
2023/03/04 21:41:12;;;;;;;5.82;1.80;;;4.80;99.90;;;;;;5112617;28;20080;-69
2023/03/04 21:43:37;;;;;;;5.78;2.15;;;4.70;99.90;;;;;;5113238;28;20369;-70
2023/03/04 21:46:04;;;;;;;4.32;1.80;;;4.70;99.90;;;;;;5111585;28;20026;-69
2023/03/04 21:48:30;;;;;;;6.95;1.88;;;4.70;99.90;;;;;;5111704;28;20080;-70
2023/03/04 21:51:00;;;;;;;6.95;1.92;;;4.60;99.90;;;;;;5113416;28;20023;-68
2023/03/04 21:53:27;;;;;;;4.43;1.90;;;4.60;99.90;;;;;;5110118;28;20449;-69
2023/03/04 21:55:53;;;;;;;5.18;2.00;;;4.60;99.90;;;;;;5113442;28;20169;-68
2023/03/04 21:58:19;;;;;;;1.55;1.45;;;4.60;99.90;;;;;;5111236;28;20387;-69
2023/03/04 22:00:45;;;;;;;3.95;1.60;;;4.60;99.90;;;;;;5111733;28;20012;-69
2023/03/04 22:03:11;;;;;;;9.43;1.90;;;4.60;99.90;;;;;;5111933;28;20016;-68
2023/03/04 22:05:44;;;;;;;3.67;1.80;;;4.60;99.90;;;;;;5112336;28;20027;-69
2023/03/04 22:08:15;;;;;;;4.38;1.77;;;4.60;99.90;;;;;;5109679;28;20081;-68
2023/03/04 22:10:42;;;;;;;7.43;1.92;;;4.60;99.90;;;;;;5111473;28;20020;-68
2023/03/04 22:13:10;;;;;;;6.90;2.05;;;4.60;99.90;;;;;;5105002;28;20073;-68
2023/03/04 22:15:39;;;;;;;5.13;1.80;;;4.50;99.90;;;;;;5111957;27;20130;-68
2023/03/04 22:18:07;;;;;;;6.70;2.05;;;4.50;99.90;;;;;;5114147;27;20080;-69
2023/03/04 22:20:38;;;;;;;6.50;1.75;;;4.50;99.90;;;;;;5113427;27;20027;-70
2023/03/04 22:23:03;;;;;;;4.05;1.40;;;4.40;99.90;;;;;;5112982;28;20080;-69
2023/03/04 22:25:29;;;;;;;3.13;2.08;;;4.40;99.90;;;;;;5094194;28;20044;-69
2023/03/04 22:27:55;;;;;;;8.77;2.75;;;4.40;99.90;;;;;;5094583;28;20441;-69
2023/03/04 22:30:21;;;;;;;4.68;1.42;;;4.40;99.90;;;;;;5112538;28;20024;-67
2023/03/04 22:32:48;;;;;;;8.07;2.00;;;4.40;99.90;;;;;;5123561;27;20065;-68
2023/03/04 22:35:14;;;;;;;6.32;2.13;;;4.40;99.90;;;;;;5132870;27;20023;-68
2023/03/04 22:37:41;;;;;;;10.23;3.25;;;4.40;99.90;;;;;;5133597;27;20105;-68
2023/03/04 22:40:08;;;;;;;4.90;1.67;;;4.40;99.90;;;;;;5127251;27;20034;-68
2023/03/04 22:42:33;;;;;;;5.68;1.90;;;4.40;99.90;;;;;;5111874;28;20527;-69
2023/03/04 22:44:59;;;;;;;6.32;1.58;;;4.40;99.90;;;;;;5112675;28;20122;-69
2023/03/04 22:47:25;;;;;;;5.60;1.50;;;4.40;99.90;;;;;;5131980;27;20101;-69
2023/03/04 22:49:50;;;;;;;4.35;1.40;;;4.40;99.90;;;;;;5114736;27;20027;-69
2023/03/04 22:52:16;;;;;;;5.55;1.73;;;4.40;99.90;;;;;;5133594;27;20023;-69
2023/03/04 22:54:42;;;;;;;5.18;1.65;;;4.40;99.90;;;;;;5132555;27;20029;-69
2023/03/04 22:57:07;;;;;;;8.93;1.90;;;4.40;99.90;;;;;;5133365;27;20027;-69
2023/03/04 22:59:33;;;;;;;3.85;1.42;;;4.40;99.90;;;;;;5127475;27;20031;-70
